^^
Your Local Weather - Clay, NY Station Historical Data
Daily Summary for February 7, 2018 Units:  English    Metric   Both
« Previous Day
Next Day »
Daily Weekly Monthly Yearly Custom
  High: Low: Average:
Temperature: 23.5 °F 5.9 °F 17.7 °F
Dew Point: 21.3 °F 2.1 °F 14.6 °F
Humidity: 91% 79% 88%
Wind Speed: 6.0mph 0.0mph 1.7mph
Wind Gust: 11.0mph - -
Wind- - SSE
Pressure: 30.49 in 29.96 in -
Precipitation: 0.00 in    
Historical Graphs
 
 
Tabular Data for February 7, 2018
Time Temperature Dew Point Pressure Wind Wind Speed Wind Gust Humidity Rainfall Rate (Hourly) solar
00:04 8.9 °F 4.8 °F 30.49 in Calm     83% 0.00 in 0 W/m2
00:10 8.6 °F 4.5 °F 30.49 in Calm     83% 0.00 in 0 W/m2
00:16 8.5 °F 4.4 °F 30.49 in Calm     83% 0.00 in 0 W/m2
00:22 8.4 °F 4.3 °F 30.49 in Calm     83% 0.00 in 0 W/m2
00:28 8.3 °F 4.5 °F 30.49 in Calm     84% 0.00 in 0 W/m2
00:34 8.1 °F 4.3 °F 30.49 in Calm     84% 0.00 in 0 W/m2
00:40 7.8 °F 4.0 °F 30.49 in Calm     84% 0.00 in 0 W/m2
00:46 7.5 °F 3.7 °F 30.49 in Calm     84% 0.00 in 0 W/m2
00:52 7.2 °F 3.4 °F 30.49 in Calm     84% 0.00 in 0 W/m2
00:58 6.9 °F 3.1 °F 30.48 in Calm     84% 0.00 in 0 W/m2
01:04 6.8 °F 3.0 °F 30.47 in Calm     84% 0.00 in 0 W/m2
01:10 6.7 °F 2.9 °F 30.47 in Calm     84% 0.00 in 0 W/m2
01:16 6.3 °F 2.5 °F 30.47 in Calm     84% 0.00 in 0 W/m2
01:22 5.9 °F 2.1 °F 30.47 in Calm     84% 0.00 in 0 W/m2
01:28 6.0 °F 2.2 °F 30.46 in Calm     84% 0.00 in 0 W/m2
01:34 6.4 °F 2.9 °F 30.46 in Calm     85% 0.00 in 0 W/m2
01:40 6.9 °F 3.3 °F 30.46 in Calm     85% 0.00 in 0 W/m2
01:46 7.5 °F 4.2 °F 30.45 in Calm     86% 0.00 in 0 W/m2
01:52 8.1 °F 4.8 °F 30.45 in Calm     86% 0.00 in 0 W/m2
01:58 8.3 °F 5.0 °F 30.45 in Calm     86% 0.00 in 0 W/m2
02:04 8.5 °F 5.2 °F 30.44 in Calm     86% 0.00 in 0 W/m2
02:10 8.8 °F 5.5 °F 30.44 in Calm     86% 0.00 in 0 W/m2
02:16 9.2 °F 5.9 °F 30.44 in Calm     86% 0.00 in 0 W/m2
02:22 9.7 °F 6.4 °F 30.44 in Calm     86% 0.00 in 0 W/m2
02:28 10.1 °F 6.7 °F 30.44 in Calm     86% 0.00 in 0 W/m2
02:34 10.0 °F 6.6 °F 30.44 in Calm   1.0 mph 86% 0.00 in 0 W/m2
02:40 10.1 °F 6.7 °F 30.43 in Calm     86% 0.00 in 0 W/m2
02:46 10.2 °F 6.8 °F 30.44 in Calm     86% 0.00 in 0 W/m2
02:52 10.6 °F 7.2 °F 30.43 in Calm     86% 0.00 in 0 W/m2
02:58 11.0 °F 7.6 °F 30.43 in Calm     86% 0.00 in 0 W/m2
03:04 11.4 °F 8.0 °F 30.43 in Calm     86% 0.00 in 0 W/m2
03:10 11.6 °F 8.2 °F 30.43 in Calm     86% 0.00 in 0 W/m2
03:16 11.9 °F 8.5 °F 30.43 in Calm   1.0 mph 86% 0.00 in 0 W/m2
03:22 12.2 °F 8.8 °F 30.43 in Calm     86% 0.00 in 0 W/m2
03:28 12.4 °F 9.0 °F 30.43 in Calm   1.0 mph 86% 0.00 in 0 W/m2
03:34 12.7 °F 9.0 °F 30.43 in Calm     85% 0.00 in 0 W/m2
03:40 13.0 °F 9.3 °F 30.43 in Calm     85% 0.00 in 0 W/m2
03:46 13.1 °F 9.4 °F 30.43 in Calm     85% 0.00 in 0 W/m2
03:52 13.2 °F 9.5 °F 30.43 in Calm     85% 0.00 in 0 W/m2
03:58 13.4 °F 9.7 °F 30.43 in Calm     85% 0.00 in 0 W/m2
04:04 13.6 °F 9.9 °F 30.41 in Calm   1.0 mph 85% 0.00 in 0 W/m2
04:10 13.8 °F 10.1 °F 30.41 in Calm   1.0 mph 85% 0.00 in 0 W/m2
04:16 13.9 °F 10.0 °F 30.41 in Calm   1.0 mph 84% 0.00 in 0 W/m2
04:22 14.1 °F 10.2 °F 30.42 in Calm   1.0 mph 84% 0.00 in 0 W/m2
04:28 14.2 °F 10.0 °F 30.42 in West 1.0 mph 1.0 mph 83% 0.00 in 0 W/m2
04:34 14.3 °F 10.1 °F 30.42 in Calm   1.0 mph 83% 0.00 in 0 W/m2
04:40 14.4 °F 9.9 °F 30.41 in Calm     82% 0.00 in 0 W/m2
04:46 14.4 °F 9.9 °F 30.41 in Calm     82% 0.00 in 0 W/m2
04:52 14.4 °F 9.9 °F 30.41 in Calm     82% 0.00 in 0 W/m2
04:58 14.4 °F 9.6 °F 30.41 in Calm   1.0 mph 81% 0.00 in 0 W/m2
05:04 14.4 °F 9.6 °F 30.40 in West 1.0 mph 1.0 mph 81% 0.00 in 0 W/m2
05:10 14.5 °F 9.7 °F 30.40 in West 1.0 mph 1.0 mph 81% 0.00 in 0 W/m2
05:16 14.5 °F 9.7 °F 30.39 in West 1.0 mph 3.0 mph 81% 0.00 in 0 W/m2
05:22 14.5 °F 9.7 °F 30.39 in West 1.0 mph 1.0 mph 81% 0.00 in 0 W/m2
05:28 14.5 °F 9.7 °F 30.38 in ENE 1.0 mph 4.0 mph 81% 0.00 in 0 W/m2
05:34 14.5 °F 9.5 °F 30.38 in ENE 2.0 mph 2.0 mph 80% 0.00 in 0 W/m2
05:40 14.6 °F 9.6 °F 30.38 in ENE 2.0 mph 2.0 mph 80% 0.00 in 0 W/m2
05:46 14.7 °F 9.6 °F 30.38 in ENE 1.0 mph 2.0 mph 80% 0.00 in 0 W/m2
05:52 14.8 °F 9.7 °F 30.38 in ENE 1.0 mph 4.0 mph 80% 0.00 in 0 W/m2
05:58 14.8 °F 9.7 °F 30.37 in ENE 1.0 mph 4.0 mph 80% 0.00 in 0 W/m2
06:04 14.8 °F 9.7 °F 30.36 in ENE 1.0 mph 2.0 mph 80% 0.00 in 0 W/m2
06:10 14.8 °F 9.7 °F 30.36 in ENE 2.0 mph 2.0 mph 80% 0.00 in 0 W/m2
06:16 14.7 °F 9.6 °F 30.35 in ENE 1.0 mph 2.0 mph 80% 0.00 in 0 W/m2
06:22 14.7 °F 9.9 °F 30.33 in ENE 1.0 mph 2.0 mph 81% 0.00 in 0 W/m2
06:28 14.6 °F 9.8 °F 30.33 in East 2.0 mph 6.0 mph 81% 0.00 in 0 W/m2
06:34 14.5 °F 9.7 °F 30.34 in ENE 2.0 mph 3.0 mph 81% 0.00 in 0 W/m2
06:40 14.5 °F 9.7 °F 30.33 in ENE 1.0 mph 5.0 mph 81% 0.00 in 0 W/m2
06:46 14.6 °F 9.8 °F 30.33 in ENE 1.0 mph 5.0 mph 81% 0.00 in 0 W/m2
06:52 14.8 °F 10.0 °F 30.33 in ENE 1.0 mph 3.0 mph 81% 0.00 in 0 W/m2
06:58 15.0 °F 10.2 °F 30.32 in East 1.0 mph 3.0 mph 81% 0.00 in 0 W/m2
07:04 15.2 °F 10.4 °F 30.31 in East 2.0 mph 3.0 mph 81% 0.00 in 0 W/m2
07:10 15.2 °F 10.4 °F 30.31 in East 1.0 mph 5.0 mph 81% 0.00 in 0 W/m2
07:16 15.4 °F 10.6 °F 30.32 in ENE 2.0 mph 5.0 mph 81% 0.00 in 0 W/m2
07:22 15.6 °F 10.8 °F 30.32 in East 2.0 mph 2.0 mph 81% 0.00 in 0 W/m2
07:28 15.7 °F 10.6 °F 30.30 in ENE 2.0 mph 5.0 mph 80% 0.00 in 0 W/m2
07:34 15.9 °F 10.8 °F 30.29 in ENE 3.0 mph 3.0 mph 80% 0.00 in 5 W/m2
07:40 16.0 °F 10.9 °F 30.28 in ENE 3.0 mph 3.0 mph 80% 0.00 in 7 W/m2
07:46 16.1 °F 11.0 °F 30.27 in ENE 2.0 mph 3.0 mph 80% 0.00 in 9 W/m2
07:52 16.3 °F 11.2 °F 30.26 in ENE 2.0 mph 2.0 mph 80% 0.00 in 11 W/m2
07:58 16.4 °F 11.3 °F 30.27 in East 2.0 mph 3.0 mph 80% 0.00 in 11 W/m2
08:04 16.7 °F 11.6 °F 30.27 in NE 2.0 mph 3.0 mph 80% 0.00 in 12 W/m2
08:10 16.9 °F 11.8 °F 30.27 in NE 1.0 mph 1.0 mph 80% 0.00 in 16 W/m2
08:16 17.1 °F 11.7 °F 30.27 in ENE 1.0 mph 2.0 mph 79% 0.00 in 16 W/m2
08:22 17.2 °F 11.8 °F 30.27 in ENE 1.0 mph 2.0 mph 79% 0.00 in 18 W/m2
08:28 17.2 °F 12.1 °F 30.28 in NE 2.0 mph 2.0 mph 80% 0.00 in 18 W/m2
08:34 17.1 °F 12.0 °F 30.27 in ENE 2.0 mph 3.0 mph 80% 0.00 in 18 W/m2
08:40 16.9 °F 12.4 °F 30.27 in ENE 2.0 mph 2.0 mph 82% 0.00 in 21 W/m2
08:46 16.8 °F 12.5 °F 30.27 in ENE 2.0 mph 3.0 mph 83% 0.00 in 21 W/m2
08:52 16.9 °F 12.9 °F 30.27 in East 2.0 mph 2.0 mph 84% 0.00 in 28 W/m2
08:58 17.0 °F 13.3 °F 30.26 in ENE 2.0 mph 4.0 mph 85% 0.00 in 37 W/m2
09:04 17.2 °F 13.7 °F 30.25 in ENE 3.0 mph 3.0 mph 86% 0.00 in 39 W/m2
09:10 17.4 °F 13.9 °F 30.24 in East 3.0 mph 3.0 mph 86% 0.00 in 39 W/m2
09:16 17.6 °F 14.4 °F 30.23 in ENE 3.0 mph 4.0 mph 87% 0.00 in 46 W/m2
09:22 17.8 °F 14.6 °F 30.23 in East 4.0 mph 8.0 mph 87% 0.00 in 47 W/m2
09:28 18.0 °F 14.8 °F 30.23 in ESE 4.0 mph 8.0 mph 87% 0.00 in 46 W/m2
09:34 18.2 °F 15.2 °F 30.22 in East 3.0 mph 4.0 mph 88% 0.00 in 46 W/m2
09:40 18.4 °F 15.4 °F 30.21 in SE 4.0 mph 4.0 mph 88% 0.00 in 46 W/m2
09:46 18.5 °F 15.5 °F 30.21 in East 4.0 mph 4.0 mph 88% 0.00 in 47 W/m2
09:52 18.6 °F 15.6 °F 30.20 in East 4.0 mph 5.0 mph 88% 0.00 in 51 W/m2
09:58 18.7 °F 15.7 °F 30.19 in East 3.0 mph 9.0 mph 88% 0.00 in 56 W/m2
10:04 18.8 °F 15.8 °F 30.18 in East 4.0 mph 10.0 mph 88% 0.00 in 60 W/m2
10:10 18.8 °F 15.8 °F 30.18 in ENE 5.0 mph 5.0 mph 88% 0.00 in 58 W/m2
10:16 18.9 °F 15.9 °F 30.18 in ENE 5.0 mph 9.0 mph 88% 0.00 in 58 W/m2
10:22 19.0 °F 16.3 °F 30.17 in ENE 4.0 mph 5.0 mph 89% 0.00 in 60 W/m2
10:28 18.9 °F 16.2 °F 30.16 in ENE 3.0 mph 8.0 mph 89% 0.00 in 53 W/m2
10:34 18.9 °F 16.2 °F 30.16 in ENE 4.0 mph 5.0 mph 89% 0.00 in 51 W/m2
10:40 18.8 °F 16.1 °F 30.15 in ENE 5.0 mph 5.0 mph 89% 0.00 in 46 W/m2
10:46 18.8 °F 16.1 °F 30.14 in NNE 4.0 mph 9.0 mph 89% 0.00 in 42 W/m2
10:52 18.9 °F 16.2 °F 30.13 in ENE 4.0 mph 7.0 mph 89% 0.00 in 46 W/m2
10:58 18.9 °F 16.2 °F 30.12 in East 4.0 mph 8.0 mph 89% 0.00 in 46 W/m2
11:04 18.8 °F 16.1 °F 30.11 in ESE 5.0 mph 7.0 mph 89% 0.00 in 44 W/m2
11:10 18.8 °F 16.1 °F 30.10 in NE 6.0 mph 8.0 mph 89% 0.00 in 49 W/m2
11:16 18.9 °F 16.2 °F 30.10 in East 5.0 mph 8.0 mph 89% 0.00 in 49 W/m2
11:22 19.0 °F 16.3 °F 30.10 in ENE 5.0 mph 5.0 mph 89% 0.00 in 58 W/m2
11:28 19.0 °F 16.6 °F 30.09 in ESE 6.0 mph 10.0 mph 90% 0.00 in 58 W/m2
11:34 19.0 °F 16.6 °F 30.09 in East 6.0 mph 8.0 mph 90% 0.00 in 63 W/m2
11:40 19.2 °F 16.7 °F 30.08 in ENE 5.0 mph 8.0 mph 90% 0.00 in 70 W/m2
11:46 19.2 °F 16.7 °F 30.07 in ENE 6.0 mph 9.0 mph 90% 0.00 in 56 W/m2
11:52 19.3 °F 16.8 °F 30.07 in NE 5.0 mph 6.0 mph 90% 0.00 in 62 W/m2
11:58 19.3 °F 16.8 °F 30.07 in ENE 5.0 mph 6.0 mph 90% 0.00 in 72 W/m2
12:04 19.3 °F 16.8 °F 30.06 in NE 5.0 mph 7.0 mph 90% 0.00 in 70 W/m2
12:10 19.4 °F 16.9 °F 30.06 in NE 5.0 mph 5.0 mph 90% 0.00 in 69 W/m2
12:16 19.4 °F 16.9 °F 30.05 in ENE 5.0 mph 11.0 mph 90% 0.00 in 70 W/m2
12:22 19.4 °F 16.9 °F 30.05 in ENE 5.0 mph 8.0 mph 90% 0.00 in 76 W/m2
12:28 19.4 °F 16.9 °F 30.04 in East 6.0 mph 9.0 mph 90% 0.00 in 74 W/m2
12:34 19.5 °F 17.0 °F 30.04 in ENE 5.0 mph 7.0 mph 90% 0.00 in 65 W/m2
12:40 19.5 °F 17.0 °F 30.04 in East 3.0 mph 3.0 mph 90% 0.00 in 56 W/m2
12:46 19.5 °F 17.0 °F 30.04 in SE 3.0 mph 6.0 mph 90% 0.00 in 62 W/m2
12:52 19.6 °F 17.1 °F 30.03 in ENE 5.0 mph 5.0 mph 90% 0.00 in 65 W/m2
12:58 19.6 °F 17.1 °F 30.02 in ENE 4.0 mph 5.0 mph 90% 0.00 in 70 W/m2
13:04 19.7 °F 17.2 °F 30.01 in ESE 4.0 mph 4.0 mph 90% 0.00 in 74 W/m2
13:10 19.7 °F 17.2 °F 30.01 in East 4.0 mph 5.0 mph 90% 0.00 in 65 W/m2
13:16 19.8 °F 17.3 °F 30.01 in East 4.0 mph 9.0 mph 90% 0.00 in 65 W/m2
13:22 19.9 °F 17.4 °F 30.01 in ENE 4.0 mph 7.0 mph 90% 0.00 in 65 W/m2
13:28 19.9 °F 17.4 °F 30.01 in ESE 4.0 mph 7.0 mph 90% 0.00 in 60 W/m2
13:34 20.0 °F 17.5 °F 30.00 in ENE 3.0 mph 4.0 mph 90% 0.00 in 62 W/m2
13:40 20.1 °F 17.6 °F 29.99 in SE 3.0 mph 3.0 mph 90% 0.00 in 76 W/m2
13:46 20.1 °F 17.6 °F 29.98 in ENE 4.0 mph 4.0 mph 90% 0.00 in 84 W/m2
13:52 20.2 °F 18.0 °F 29.98 in East 4.0 mph 7.0 mph 91% 0.00 in 70 W/m2
13:58 20.2 °F 18.0 °F 29.98 in East 4.0 mph 7.0 mph 91% 0.00 in 58 W/m2
14:04 20.2 °F 18.0 °F 29.98 in East 4.0 mph 4.0 mph 91% 0.00 in 51 W/m2
14:10 20.2 °F 18.0 °F 29.98 in East 3.0 mph 3.0 mph 91% 0.00 in 53 W/m2
14:16 20.3 °F 18.1 °F 29.97 in ENE 3.0 mph 7.0 mph 91% 0.00 in 62 W/m2
14:22 20.3 °F 18.1 °F 29.96 in ESE 4.0 mph 5.0 mph 91% 0.00 in 74 W/m2
14:28 20.4 °F 18.2 °F 29.97 in SE 4.0 mph 5.0 mph 91% 0.00 in 67 W/m2
14:34 20.5 °F 18.3 °F 29.98 in East 3.0 mph 3.0 mph 91% 0.00 in 56 W/m2
14:40 20.6 °F 18.4 °F 29.96 in SE 2.0 mph 2.0 mph 91% 0.00 in 56 W/m2
14:46 20.6 °F 18.4 °F 29.96 in ESE 2.0 mph 4.0 mph 91% 0.00 in 58 W/m2
14:52 20.6 °F 18.4 °F 29.96 in SSE 1.0 mph 3.0 mph 91% 0.00 in 47 W/m2
14:58 20.7 °F 18.5 °F 29.96 in East 1.0 mph 6.0 mph 91% 0.00 in 44 W/m2
15:04 20.7 °F 18.5 °F 29.96 in SE 2.0 mph 4.0 mph 91% 0.00 in 46 W/m2
15:10 20.8 °F 18.6 °F 29.96 in SE 1.0 mph 2.0 mph 91% 0.00 in 46 W/m2
15:16 20.9 °F 18.7 °F 29.96 in East 1.0 mph 2.0 mph 91% 0.00 in 44 W/m2
15:22 20.9 °F 18.7 °F 29.96 in SE 2.0 mph 4.0 mph 91% 0.00 in 42 W/m2
15:28 20.9 °F 18.7 °F 29.97 in SE 2.0 mph 4.0 mph 91% 0.00 in 32 W/m2
15:34 21.0 °F 18.8 °F 29.96 in East 2.0 mph 2.0 mph 91% 0.00 in 39 W/m2
15:42 21.0 °F 18.8 °F 29.96 in East 1.0 mph 1.0 mph 91% 0.00 in 25 W/m2
15:48 21.0 °F 18.8 °F 29.97 in SSE 2.0 mph 2.0 mph 91% 0.00 in 30 W/m2
15:54 21.0 °F 18.8 °F 29.96 in SSE 1.0 mph 2.0 mph 91% 0.00 in 39 W/m2
16:00 21.1 °F 18.9 °F 29.96 in SSE 2.0 mph 2.0 mph 91% 0.00 in 39 W/m2
16:06 21.1 °F 18.9 °F 29.96 in SE 2.0 mph 3.0 mph 91% 0.00 in 39 W/m2
16:12 21.1 °F 18.9 °F 29.97 in SE 2.0 mph 2.0 mph 91% 0.00 in 26 W/m2
16:20 21.2 °F 19.0 °F 29.97 in SE 1.0 mph 1.0 mph 91% 0.00 in 25 W/m2
16:26 21.2 °F 19.0 °F 29.96 in SE 1.0 mph 1.0 mph 91% 0.00 in 63 W/m2
16:32 21.3 °F 19.1 °F 29.96 in Calm   1.0 mph 91% 0.00 in 83 W/m2
16:38 21.5 °F 19.3 °F 29.97 in Calm   2.0 mph 91% 0.00 in 70 W/m2
16:44 21.7 °F 19.5 °F 29.98 in Calm   1.0 mph 91% 0.00 in 42 W/m2
16:50 21.7 °F 19.5 °F 29.98 in Calm     91% 0.00 in 18 W/m2
16:56 21.5 °F 19.3 °F 29.98 in SE 1.0 mph 3.0 mph 91% 0.00 in 11 W/m2
17:02 21.4 °F 19.2 °F 29.98 in SE 1.0 mph 1.0 mph 91% 0.00 in 5 W/m2
17:08 21.3 °F 19.1 °F 29.99 in Calm   1.0 mph 91% 0.00 in 5 W/m2
17:14 21.3 °F 19.1 °F 29.99 in Calm   1.0 mph 91% 0.00 in 0 W/m2
17:20 21.3 °F 19.1 °F 29.99 in Calm   1.0 mph 91% 0.00 in 0 W/m2
17:26 21.3 °F 19.1 °F 30.00 in Calm   1.0 mph 91% 0.00 in 0 W/m2
17:32 21.3 °F 19.1 °F 30.00 in Calm   1.0 mph 91% 0.00 in 0 W/m2
17:38 21.2 °F 19.0 °F 30.01 in Calm   2.0 mph 91% 0.00 in 0 W/m2
17:44 21.2 °F 19.0 °F 30.01 in SE 1.0 mph 1.0 mph 91% 0.00 in 0 W/m2
17:50 21.3 °F 19.1 °F 30.01 in Calm     91% 0.00 in 0 W/m2
17:56 21.3 °F 19.1 °F 30.02 in Calm   1.0 mph 91% 0.00 in 0 W/m2
18:02 21.3 °F 19.1 °F 30.02 in SSW 1.0 mph 2.0 mph 91% 0.00 in 0 W/m2
18:08 21.3 °F 19.1 °F 30.03 in Calm   2.0 mph 91% 0.00 in 0 W/m2
18:14 21.3 °F 19.1 °F 30.03 in Calm     91% 0.00 in 0 W/m2
18:20 21.3 °F 19.1 °F 30.03 in Calm     91% 0.00 in 0 W/m2
18:26 21.3 °F 19.1 °F 30.04 in Calm   1.0 mph 91% 0.00 in 0 W/m2
18:32 21.4 °F 19.2 °F 30.04 in Calm     91% 0.00 in 0 W/m2
18:38 21.4 °F 19.2 °F 30.05 in Calm     91% 0.00 in 0 W/m2
18:44 21.5 °F 19.3 °F 30.05 in Calm   2.0 mph 91% 0.00 in 0 W/m2
18:50 21.5 °F 19.3 °F 30.06 in SSW 1.0 mph 2.0 mph 91% 0.00 in 0 W/m2
18:56 21.6 °F 19.4 °F 30.06 in SSW 1.0 mph 2.0 mph 91% 0.00 in 0 W/m2
19:02 21.7 °F 19.5 °F 30.06 in SSW 1.0 mph 1.0 mph 91% 0.00 in 0 W/m2
19:08 21.8 °F 19.6 °F 30.06 in SSW 1.0 mph 2.0 mph 91% 0.00 in 0 W/m2
19:14 21.9 °F 19.7 °F 30.07 in SSW 1.0 mph 1.0 mph 91% 0.00 in 0 W/m2
19:20 22.1 °F 19.9 °F 30.07 in SW 1.0 mph 1.0 mph 91% 0.00 in 0 W/m2
19:26 22.3 °F 20.1 °F 30.07 in SW 1.0 mph 1.0 mph 91% 0.00 in 0 W/m2
19:32 22.5 °F 20.3 °F 30.08 in SW 1.0 mph 1.0 mph 91% 0.00 in 0 W/m2
19:38 22.6 °F 20.4 °F 30.08 in SW 1.0 mph 1.0 mph 91% 0.00 in 0 W/m2
19:44 22.8 °F 20.6 °F 30.08 in WNW 1.0 mph 3.0 mph 91% 0.00 in 0 W/m2
19:50 23.0 °F 20.8 °F 30.09 in West 1.0 mph 2.0 mph 91% 0.00 in 0 W/m2
19:56 23.1 °F 20.9 °F 30.09 in West 1.0 mph 2.0 mph 91% 0.00 in 0 W/m2
20:02 23.2 °F 21.0 °F 30.09 in West 1.0 mph 2.0 mph 91% 0.00 in 0 W/m2
20:08 23.3 °F 21.1 °F 30.10 in West 2.0 mph 3.0 mph 91% 0.00 in 0 W/m2
20:14 23.5 °F 21.3 °F 30.10 in WNW 2.0 mph 3.0 mph 91% 0.00 in 0 W/m2
20:20 23.5 °F 21.3 °F 30.10 in WNW 2.0 mph 2.0 mph 91% 0.00 in 0 W/m2
20:26 23.5 °F 21.3 °F 30.10 in WNW 1.0 mph 3.0 mph 91% 0.00 in 0 W/m2
20:32 23.5 °F 21.3 °F 30.10 in WNW 1.0 mph 2.0 mph 91% 0.00 in 0 W/m2
20:38 23.5 °F 21.3 °F 30.11 in WNW 1.0 mph 2.0 mph 91% 0.00 in 0 W/m2
20:44 23.5 °F 21.3 °F 30.12 in WNW 2.0 mph 4.0 mph 91% 0.00 in 0 W/m2
20:50 23.4 °F 21.2 °F 30.12 in WNW 2.0 mph 2.0 mph 91% 0.00 in 0 W/m2
20:56 23.3 °F 21.1 °F 30.13 in NNW 2.0 mph 3.0 mph 91% 0.00 in 0 W/m2
21:02 23.2 °F 21.0 °F 30.13 in NNW 2.0 mph 2.0 mph 91% 0.00 in 0 W/m2
21:08 23.2 °F 21.0 °F 30.13 in NW 2.0 mph 3.0 mph 91% 0.00 in 0 W/m2
21:14 23.1 °F 20.9 °F 30.14 in NW 2.0 mph 4.0 mph 91% 0.00 in 0 W/m2
21:20 23.0 °F 20.8 °F 30.15 in North 2.0 mph 3.0 mph 91% 0.00 in 0 W/m2
21:26 22.9 °F 20.7 °F 30.15 in NNW 2.0 mph 3.0 mph 91% 0.00 in 0 W/m2
21:32 22.8 °F 20.6 °F 30.15 in NNW 2.0 mph 2.0 mph 91% 0.00 in 0 W/m2
21:38 22.8 °F 20.6 °F 30.15 in NNW 1.0 mph 2.0 mph 91% 0.00 in 0 W/m2
21:44 22.8 °F 20.6 °F 30.15 in NNW 1.0 mph 3.0 mph 91% 0.00 in 0 W/m2
21:50 22.8 °F 20.6 °F 30.15 in NNW 1.0 mph 4.0 mph 91% 0.00 in 0 W/m2
21:56 22.8 °F 20.6 °F 30.16 in NW 1.0 mph 4.0 mph 91% 0.00 in 0 W/m2
22:02 22.8 °F 20.6 °F 30.16 in WNW 3.0 mph 4.0 mph 91% 0.00 in 0 W/m2
22:08 22.8 °F 20.6 °F 30.16 in WNW 3.0 mph 6.0 mph 91% 0.00 in 0 W/m2
22:14 22.8 °F 20.6 °F 30.17 in WNW 3.0 mph 3.0 mph 91% 0.00 in 0 W/m2
22:20 22.6 °F 20.4 °F 30.17 in NW 3.0 mph 4.0 mph 91% 0.00 in 0 W/m2
22:26 22.3 °F 20.1 °F 30.18 in NW 3.0 mph 7.0 mph 91% 0.00 in 0 W/m2
22:32 22.0 °F 19.8 °F 30.18 in NNW 2.0 mph 3.0 mph 91% 0.00 in 0 W/m2
22:38 21.7 °F 19.5 °F 30.18 in NNW 2.0 mph 3.0 mph 91% 0.00 in 0 W/m2
22:44 21.4 °F 19.2 °F 30.18 in NW 2.0 mph 3.0 mph 91% 0.00 in 0 W/m2
22:50 21.2 °F 19.0 °F 30.18 in NW 2.0 mph 6.0 mph 91% 0.00 in 0 W/m2
22:56 20.9 °F 18.7 °F 30.18 in North 2.0 mph 6.0 mph 91% 0.00 in 0 W/m2
23:02 20.6 °F 18.4 °F 30.19 in NNW 2.0 mph 3.0 mph 91% 0.00 in 0 W/m2
23:08 20.4 °F 17.9 °F 30.19 in NNW 2.0 mph 3.0 mph 90% 0.00 in 0 W/m2
23:14 20.1 °F 17.6 °F 30.19 in NNW 1.0 mph 2.0 mph 90% 0.00 in 0 W/m2
23:20 19.9 °F 17.4 °F 30.19 in NNW 1.0 mph 1.0 mph 90% 0.00 in 0 W/m2
23:26 19.9 °F 17.4 °F 30.20 in Calm   2.0 mph 90% 0.00 in 0 W/m2
23:32 20.0 °F 17.5 °F 30.20 in Calm     90% 0.00 in 0 W/m2
23:38 20.2 °F 18.0 °F 30.21 in Calm     91% 0.00 in 0 W/m2
23:44 20.3 °F 17.8 °F 30.21 in NNW 1.0 mph 1.0 mph 90% 0.00 in 0 W/m2
23:50 20.5 °F 18.3 °F 30.22 in NW 1.0 mph 2.0 mph 91% 0.00 in 0 W/m2
23:56 20.6 °F 18.4 °F 30.22 in NW 1.0 mph 2.0 mph 91% 0.00 in 0 W/m2
Country Meadow, Clay, NY, USA
Compliments of Weather Underground - 2 mb